Time;durP1;ratioP1;P1;durP2;ratioP2;P2;SDS_P1;SDS_P2;PMS_P1;PMS_P2;Temp;Humidity;BMP_temperature;BMP_pressure;BME280_temperature;BME280_humidity;BME280_pressure;Samples;Min_cycle;Max_cycle;Signal;HPM_P1;HPM_P2
2021/05/13 00:00:27;;;;;;;1.67;0.90;;;;;;;;;;5002758;28;20059;-77
2021/05/13 00:02:52;;;;;;;2.00;0.97;;;;;;;;;;5019256;28;20433;-77
2021/05/13 00:05:17;;;;;;;1.63;0.93;;;;;;;;;;5019684;28;20126;-78
2021/05/13 00:07:43;;;;;;;2.07;1.00;;;;;;;;;;5018761;28;20058;-77
2021/05/13 00:10:10;;;;;;;1.73;1.00;;;;;;;;;;5019374;28;20057;-77
2021/05/13 00:12:38;;;;;;;1.70;1.00;;;;;;;;;;5002916;28;20021;-78
2021/05/13 00:15:06;;;;;;;2.15;1.10;;;;;;;;;;5019594;28;20029;-78
2021/05/13 00:17:32;;;;;;;2.13;1.00;;;;;;;;;;4984495;28;20029;-78
2021/05/13 00:19:57;;;;;;;1.92;0.93;;;;;;;;;;4998994;28;20036;-78
2021/05/13 00:22:24;;;;;;;2.73;1.00;;;;;;;;;;5011737;28;20038;-80
2021/05/13 00:24:49;;;;;;;1.73;0.93;;;;;;;;;;4996490;28;20032;-77
2021/05/13 00:27:15;;;;;;;2.47;1.00;;;;;;;;;;4990158;28;20033;-79
2021/05/13 00:29:40;;;;;;;1.83;1.00;;;;;;;;;;5011784;28;20032;-78
2021/05/13 00:32:06;;;;;;;2.97;1.00;;;;;;;;;;4995613;28;20112;-77
2021/05/13 00:34:31;;;;;;;2.13;1.03;;;;;;;;;;4996752;28;20025;-77
2021/05/13 00:36:56;;;;;;;2.20;1.10;;;;;;;;;;4994221;28;20044;-78
2021/05/13 00:39:22;;;;;;;2.57;1.23;;;;;;;;;;4994976;28;20124;-78
2021/05/13 00:41:47;;;;;;;1.63;0.80;;;;;;;;;;5013754;28;20028;-77
2021/05/13 00:44:12;;;;;;;2.53;1.20;;;;;;;;;;5030955;28;20036;-77
2021/05/13 00:46:38;;;;;;;2.33;1.20;;;;;;;;;;5005843;28;20094;-77
2021/05/13 00:49:07;;;;;;;3.90;1.00;;;;;;;;;;5008527;28;20447;-77
2021/05/13 00:51:32;;;;;;;2.33;1.00;;;;;;;;;;4999270;28;20116;-77
2021/05/13 00:53:58;;;;;;;2.17;1.03;;;;;;;;;;5014488;28;20104;-78
2021/05/13 00:56:23;;;;;;;2.13;1.10;;;;;;;;;;5012855;28;20107;-78
2021/05/13 00:58:50;;;;;;;2.67;1.10;;;;;;;;;;5017053;28;20060;-78
2021/05/13 01:01:17;;;;;;;2.03;1.10;;;;;;;;;;4993013;28;20033;-78
2021/05/13 01:03:43;;;;;;;1.73;1.10;;;;;;;;;;4985732;28;20021;-78
2021/05/13 01:06:12;;;;;;;1.50;1.00;;;;;;;;;;4998316;28;20060;-78
2021/05/13 01:08:38;;;;;;;2.33;1.08;;;;;;;;;;4998508;28;20112;-78
2021/05/13 01:11:03;;;;;;;2.40;1.17;;;;;;;;;;5005247;28;21157;-77
2021/05/13 01:13:31;;;;;;;2.57;0.90;;;;;;;;;;5001307;28;20029;-77
2021/05/13 01:16:23;;;;;;;1.65;0.93;;;;;;;;;;5051240;28;20032;-78
2021/05/13 01:18:48;;;;;;;2.72;1.20;;;;;;;;;;5000959;28;20028;-77
2021/05/13 01:21:13;;;;;;;3.13;1.00;;;;;;;;;;4997710;28;20068;-77
2021/05/13 01:23:39;;;;;;;2.00;1.00;;;;;;;;;;4981564;28;20128;-77
2021/05/13 01:26:05;;;;;;;2.90;1.23;;;;;;;;;;4988326;28;20033;-77
2021/05/13 01:28:30;;;;;;;2.80;1.02;;;;;;;;;;4996882;28;20102;-79
2021/05/13 01:30:55;;;;;;;2.03;1.00;;;;;;;;;;4981318;28;20488;-78
2021/05/13 01:33:22;;;;;;;1.60;0.90;;;;;;;;;;4984663;28;20494;-78
2021/05/13 01:35:48;;;;;;;1.77;0.98;;;;;;;;;;4997549;28;20018;-78
2021/05/13 01:38:15;;;;;;;1.47;0.97;;;;;;;;;;4997682;28;20049;-79
2021/05/13 01:40:40;;;;;;;;;;;;;;;;;;4992421;28;20037;-78
2021/05/13 01:43:06;;;;;;;2.10;0.90;;;;;;;;;;5029585;28;19939;-79
2021/05/13 01:45:32;;;;;;;2.13;1.00;;;;;;;;;;5000448;28;20107;-78
2021/05/13 01:48:04;;;;;;;2.40;1.10;;;;;;;;;;5015032;28;20021;-79
2021/05/13 01:50:32;;;;;;;2.13;1.02;;;;;;;;;;4997455;28;20044;-77
2021/05/13 01:52:58;;;;;;;2.22;1.00;;;;;;;;;;4996996;28;20499;-78
2021/05/13 01:55:24;;;;;;;2.33;0.97;;;;;;;;;;5002468;28;20029;-77
2021/05/13 01:57:49;;;;;;;2.03;1.00;;;;;;;;;;5017046;28;20403;-78
2021/05/13 02:00:15;;;;;;;2.00;1.00;;;;;;;;;;5015571;28;20052;-78
2021/05/13 02:02:44;;;;;;;1.20;0.80;;;;;;;;;;5017537;28;20037;-77
2021/05/13 02:05:11;;;;;;;3.08;1.13;;;;;;;;;;5004733;28;20021;-77
2021/05/13 02:07:37;;;;;;;2.08;1.00;;;;;;;;;;5004213;28;20484;-77
2021/05/13 02:10:03;;;;;;;2.20;1.15;;;;;;;;;;5019590;28;20040;-77
2021/05/13 02:12:28;;;;;;;2.00;1.00;;;;;;;;;;5016685;28;20034;-78
2021/05/13 02:14:53;;;;;;;1.83;1.00;;;;;;;;;;4985791;28;20048;-77
2021/05/13 02:17:19;;;;;;;2.40;1.20;;;;;;;;;;5020658;28;20522;-77
2021/05/13 02:19:44;;;;;;;1.87;0.90;;;;;;;;;;5020477;28;20495;-77
2021/05/13 02:22:09;;;;;;;1.87;1.00;;;;;;;;;;5006403;28;20507;-77
2021/05/13 02:24:35;;;;;;;1.50;0.90;;;;;;;;;;5021235;28;20052;-77
2021/05/13 02:27:00;;;;;;;1.70;1.00;;;;;;;;;;5003724;28;20403;-78
2021/05/13 02:29:25;;;;;;;1.83;0.93;;;;;;;;;;5005767;28;20025;-78
2021/05/13 02:31:51;;;;;;;1.40;0.80;;;;;;;;;;5021783;28;20032;-78
2021/05/13 02:34:16;;;;;;;1.63;0.90;;;;;;;;;;5005132;28;20114;-78
2021/05/13 02:36:41;;;;;;;1.20;0.70;;;;;;;;;;5005776;28;20033;-78
2021/05/13 02:39:07;;;;;;;2.00;1.00;;;;;;;;;;5005228;28;20025;-78
2021/05/13 02:41:32;;;;;;;1.63;0.87;;;;;;;;;;5001051;28;20036;-76
2021/05/13 02:43:57;;;;;;;1.60;1.00;;;;;;;;;;4991162;28;20049;-76
2021/05/13 02:46:23;;;;;;;1.90;1.00;;;;;;;;;;4999906;28;20057;-76
2021/05/13 02:48:48;;;;;;;1.50;1.00;;;;;;;;;;5018815;28;20052;-76
2021/05/13 02:51:13;;;;;;;1.23;0.90;;;;;;;;;;5010741;28;20028;-76
2021/05/13 02:53:39;;;;;;;1.73;1.00;;;;;;;;;;4999776;28;20053;-76
2021/05/13 02:56:04;;;;;;;2.20;1.13;;;;;;;;;;4983494;28;20022;-76
2021/05/13 02:58:29;;;;;;;1.93;0.97;;;;;;;;;;4985254;28;20027;-76
2021/05/13 03:01:40;;;;;;;1.50;0.93;;;;;;;;;;5018423;28;20104;-76
2021/05/13 03:03:40;;;;;;;1.35;0.77;;;;;;;;;;5014655;28;20040;-76
2021/05/13 03:06:05;;;;;;;1.80;1.00;;;;;;;;;;5011584;28;20025;-76
2021/05/13 03:08:31;;;;;;;1.63;1.03;;;;;;;;;;5001081;28;20063;-76
2021/05/13 03:10:56;;;;;;;2.40;1.00;;;;;;;;;;5003574;28;20055;-76
2021/05/13 03:13:24;;;;;;;2.13;1.00;;;;;;;;;;5002790;28;20052;-76
2021/05/13 03:15:50;;;;;;;1.58;0.95;;;;;;;;;;5015972;28;20543;-76
2021/05/13 03:18:16;;;;;;;1.85;0.90;;;;;;;;;;4999539;28;20029;-76
2021/05/13 03:20:46;;;;;;;1.90;1.00;;;;;;;;;;4983736;28;20923;-76
2021/05/13 03:23:12;;;;;;;1.55;0.90;;;;;;;;;;5020842;28;20376;-76
2021/05/13 03:25:40;;;;;;;1.25;0.90;;;;;;;;;;5012352;28;20037;-76
2021/05/13 03:28:09;;;;;;;1.85;1.00;;;;;;;;;;4997030;28;20091;-76
2021/05/13 03:30:44;;;;;;;1.77;0.82;;;;;;;;;;5019278;28;20043;-76
2021/05/13 03:33:10;;;;;;;1.77;0.80;;;;;;;;;;5002484;28;20082;-76
2021/05/13 03:35:36;;;;;;;1.23;0.75;;;;;;;;;;4999046;28;20480;-77
2021/05/13 03:38:02;;;;;;;1.70;0.80;;;;;;;;;;5001918;28;20028;-76
2021/05/13 03:40:30;;;;;;;2.25;1.00;;;;;;;;;;4998821;28;20485;-76
2021/05/13 03:42:55;;;;;;;2.72;0.90;;;;;;;;;;4999969;28;20025;-76
2021/05/13 03:45:21;;;;;;;2.20;1.00;;;;;;;;;;4999307;28;20060;-76
2021/05/13 03:47:46;;;;;;;1.50;1.00;;;;;;;;;;5015644;28;20049;-76
2021/05/13 03:50:12;;;;;;;2.20;1.00;;;;;;;;;;4983316;28;20061;-76
2021/05/13 03:52:38;;;;;;;1.42;0.93;;;;;;;;;;5011270;28;20025;-76
2021/05/13 03:55:04;;;;;;;1.87;1.00;;;;;;;;;;5002868;28;20471;-76
2021/05/13 03:57:29;;;;;;;1.75;1.05;;;;;;;;;;5018586;28;20505;-76
2021/05/13 03:59:57;;;;;;;1.77;0.90;;;;;;;;;;5000115;28;20025;-76
2021/05/13 04:02:34;;;;;;;1.88;0.90;;;;;;;;;;4983435;28;20508;-76
2021/05/13 04:05:03;;;;;;;;;;;;;;;;;;4996852;28;20033;-76
2021/05/13 04:07:32;;;;;;;1.27;0.80;;;;;;;;;;5027715;28;19928;-76
2021/05/13 04:09:57;;;;;;;1.85;0.82;;;;;;;;;;4985001;28;20084;-76
2021/05/13 04:12:23;;;;;;;1.53;0.97;;;;;;;;;;5002080;28;20111;-76
2021/05/13 04:14:49;;;;;;;1.20;0.80;;;;;;;;;;5016150;28;20053;-76
2021/05/13 04:17:15;;;;;;;2.45;0.95;;;;;;;;;;4998712;28;20037;-76
2021/05/13 04:19:40;;;;;;;1.90;0.90;;;;;;;;;;5016251;28;20033;-76
2021/05/13 04:22:05;;;;;;;2.03;1.00;;;;;;;;;;5017302;28;20067;-76
2021/05/13 04:24:31;;;;;;;1.60;0.90;;;;;;;;;;5002219;28;20108;-76
2021/05/13 04:29:29;;;;;;;1.90;0.95;;;;;;;;;;5030300;28;20474;-78
2021/05/13 04:31:55;;;;;;;2.87;1.10;;;;;;;;;;5000124;28;20061;-78
2021/05/13 04:34:20;;;;;;;1.80;1.00;;;;;;;;;;5002438;28;20473;-80
2021/05/13 04:36:45;;;;;;;1.57;0.90;;;;;;;;;;5020604;28;20476;-78
2021/05/13 04:39:11;;;;;;;1.23;0.80;;;;;;;;;;5020360;28;20508;-78
2021/05/13 04:41:36;;;;;;;1.27;0.87;;;;;;;;;;4987865;28;20025;-78
2021/05/13 04:44:02;;;;;;;1.40;0.90;;;;;;;;;;4986636;28;20017;-78
2021/05/13 04:46:32;;;;;;;2.13;1.10;;;;;;;;;;4984707;28;20392;-78
2021/05/13 04:51:30;;;;;;;1.83;0.80;;;;;;;;;;5002288;28;20140;-79
2021/05/13 04:53:55;;;;;;;2.08;1.00;;;;;;;;;;5003197;28;20029;-79
2021/05/13 04:56:21;;;;;;;1.43;0.93;;;;;;;;;;4986210;28;20026;-79
2021/05/13 04:58:46;;;;;;;2.17;1.10;;;;;;;;;;5002934;28;20042;-79
2021/05/13 05:01:12;;;;;;;1.37;0.70;;;;;;;;;;5003170;28;20106;-78
2021/05/13 05:03:37;;;;;;;1.80;0.90;;;;;;;;;;5002493;28;20078;-78
2021/05/13 05:06:02;;;;;;;1.43;0.90;;;;;;;;;;5027472;28;20022;-78
2021/05/13 05:08:28;;;;;;;1.67;0.87;;;;;;;;;;5021525;28;20039;-78
2021/05/13 05:10:53;;;;;;;1.77;1.10;;;;;;;;;;5020981;28;20018;-79
2021/05/13 05:13:18;;;;;;;1.40;0.90;;;;;;;;;;5008683;28;20469;-78
2021/05/13 05:15:44;;;;;;;2.17;0.90;;;;;;;;;;5002825;28;20477;-78
2021/05/13 05:18:16;;;;;;;1.67;0.90;;;;;;;;;;4985765;28;20036;-79
2021/05/13 05:20:41;;;;;;;2.17;1.00;;;;;;;;;;4985896;28;20029;-79
2021/05/13 05:23:06;;;;;;;1.30;0.80;;;;;;;;;;5003085;28;20029;-79
2021/05/13 05:25:32;;;;;;;1.10;0.70;;;;;;;;;;5001923;28;20030;-80
2021/05/13 05:27:57;;;;;;;1.57;0.80;;;;;;;;;;5001636;28;20026;-79
2021/05/13 05:30:22;;;;;;;1.67;0.93;;;;;;;;;;5005266;28;20388;-78
2021/05/13 05:32:48;;;;;;;2.67;0.90;;;;;;;;;;5019707;28;20112;-79
2021/05/13 05:35:13;;;;;;;1.60;0.77;;;;;;;;;;5009269;28;20028;-79
2021/05/13 05:37:41;;;;;;;2.17;1.17;;;;;;;;;;4985578;28;20058;-79
2021/05/13 05:40:07;;;;;;;1.75;1.00;;;;;;;;;;4990748;28;20023;-78
2021/05/13 05:42:33;;;;;;;1.35;0.85;;;;;;;;;;4995385;28;20034;-78
2021/05/13 05:44:58;;;;;;;1.47;0.90;;;;;;;;;;5001367;28;20408;-78
2021/05/13 05:47:23;;;;;;;1.80;1.00;;;;;;;;;;5012431;28;20433;-78
2021/05/13 05:49:49;;;;;;;1.43;0.87;;;;;;;;;;5021470;28;20064;-78
2021/05/13 05:52:14;;;;;;;1.20;0.83;;;;;;;;;;5018793;28;20013;-78
2021/05/13 05:54:39;;;;;;;2.03;1.00;;;;;;;;;;4988243;28;20029;-78
2021/05/13 05:57:05;;;;;;;2.07;0.97;;;;;;;;;;5001741;28;20029;-79
2021/05/13 05:59:30;;;;;;;1.20;0.70;;;;;;;;;;4998513;28;20017;-78
2021/05/13 06:01:55;;;;;;;2.00;1.13;;;;;;;;;;5013784;28;20025;-78
2021/05/13 06:04:21;;;;;;;1.10;0.80;;;;;;;;;;4991420;28;20151;-79
2021/05/13 06:06:46;;;;;;;2.37;1.00;;;;;;;;;;4985404;28;20029;-78
2021/05/13 06:09:11;;;;;;;1.97;0.80;;;;;;;;;;5000964;28;20086;-78
2021/05/13 06:11:37;;;;;;;2.07;1.00;;;;;;;;;;5000846;28;20061;-78
2021/05/13 06:14:02;;;;;;;2.00;1.00;;;;;;;;;;4985503;28;20072;-78
2021/05/13 06:16:28;;;;;;;1.13;0.80;;;;;;;;;;5003328;28;20032;-78
2021/05/13 06:18:54;;;;;;;1.33;0.90;;;;;;;;;;4968641;28;20061;-78
2021/05/13 06:21:20;;;;;;;2.17;1.10;;;;;;;;;;4986987;28;20067;-79
2021/05/13 06:23:51;;;;;;;1.10;0.80;;;;;;;;;;5002942;28;20419;-79
2021/05/13 06:26:27;;;;;;;1.88;0.90;;;;;;;;;;4985093;28;20033;-78
2021/05/13 06:28:52;;;;;;;3.03;1.00;;;;;;;;;;5000697;28;20108;-78
2021/05/13 06:31:18;;;;;;;1.20;0.90;;;;;;;;;;4983936;28;20052;-78
2021/05/13 06:33:43;;;;;;;1.33;0.90;;;;;;;;;;5018347;28;20067;-79
2021/05/13 06:36:09;;;;;;;2.80;1.03;;;;;;;;;;5019932;28;20506;-80
2021/05/13 06:38:34;;;;;;;2.23;1.20;;;;;;;;;;5037900;28;20112;-80
2021/05/13 06:41:00;;;;;;;2.00;0.87;;;;;;;;;;5003841;28;20395;-79
2021/05/13 06:43:25;;;;;;;1.50;0.73;;;;;;;;;;5003035;28;20013;-80
2021/05/13 06:45:51;;;;;;;1.90;0.87;;;;;;;;;;4983661;28;20128;-79
2021/05/13 06:48:16;;;;;;;2.13;1.00;;;;;;;;;;5015045;28;20120;-79
2021/05/13 06:50:41;;;;;;;1.43;0.90;;;;;;;;;;5019538;28;20057;-80
2021/05/13 06:53:07;;;;;;;1.60;1.00;;;;;;;;;;5002606;28;20060;-79
2021/05/13 06:55:32;;;;;;;1.53;1.00;;;;;;;;;;5002659;28;20045;-79
2021/05/13 06:57:59;;;;;;;1.40;1.00;;;;;;;;;;5002543;28;20025;-79
2021/05/13 07:00:25;;;;;;;1.52;0.90;;;;;;;;;;4984629;28;20040;-78
2021/05/13 07:02:50;;;;;;;2.40;0.90;;;;;;;;;;5028986;28;20117;-79
2021/05/13 07:05:15;;;;;;;1.40;0.80;;;;;;;;;;5001785;28;20495;-79
2021/05/13 07:07:41;;;;;;;1.53;0.80;;;;;;;;;;5000545;28;20037;-79
2021/05/13 07:10:07;;;;;;;1.17;0.80;;;;;;;;;;4983618;28;20050;-79
2021/05/13 07:12:32;;;;;;;1.83;0.80;;;;;;;;;;5007360;28;20061;-79
2021/05/13 07:15:01;;;;;;;1.30;0.80;;;;;;;;;;4988135;28;20127;-79
2021/05/13 07:17:26;;;;;;;1.40;0.80;;;;;;;;;;4984303;28;20029;-79
2021/05/13 07:19:52;;;;;;;1.73;0.87;;;;;;;;;;4983723;28;20077;-80
2021/05/13 07:22:18;;;;;;;1.57;0.90;;;;;;;;;;5017382;28;20030;-79
2021/05/13 07:24:44;;;;;;;;;;;;;;;;;;5030006;28;20104;-79
2021/05/13 07:27:09;;;;;;;1.67;0.80;;;;;;;;;;5013911;28;19980;-79
2021/05/13 07:29:35;;;;;;;2.10;1.00;;;;;;;;;;4999588;28;20141;-80
2021/05/13 07:32:00;;;;;;;1.57;1.00;;;;;;;;;;4983465;28;20268;-79
2021/05/13 07:34:26;;;;;;;2.20;0.80;;;;;;;;;;4973001;28;20556;-78
2021/05/13 07:36:51;;;;;;;1.83;0.90;;;;;;;;;;4999173;28;20025;-78
2021/05/13 07:39:16;;;;;;;1.00;0.90;;;;;;;;;;4999504;28;20061;-78
2021/05/13 07:41:42;;;;;;;2.13;1.00;;;;;;;;;;4967446;28;20034;-79
2021/05/13 07:44:07;;;;;;;1.20;0.90;;;;;;;;;;5017119;28;20045;-79
2021/05/13 07:46:37;;;;;;;1.47;0.90;;;;;;;;;;5000787;28;20030;-79
2021/05/13 07:49:03;;;;;;;1.30;0.85;;;;;;;;;;5004308;28;20028;-79
2021/05/13 07:51:28;;;;;;;2.33;1.00;;;;;;;;;;5002940;28;20025;-79
2021/05/13 07:53:53;;;;;;;1.90;0.80;;;;;;;;;;5016891;28;20323;-81
2021/05/13 07:56:19;;;;;;;1.40;0.87;;;;;;;;;;5002841;28;20058;-78
2021/05/13 07:58:44;;;;;;;2.17;0.90;;;;;;;;;;5017184;28;20022;-78
2021/05/13 08:01:09;;;;;;;0.90;0.73;;;;;;;;;;4999714;28;20033;-78
2021/05/13 08:03:35;;;;;;;0.90;0.70;;;;;;;;;;5000859;28;20076;-80
2021/05/13 08:06:00;;;;;;;1.50;0.90;;;;;;;;;;5007882;28;20079;-79
2021/05/13 08:08:25;;;;;;;1.20;0.70;;;;;;;;;;5006463;28;20487;-79
2021/05/13 08:10:51;;;;;;;1.23;0.80;;;;;;;;;;5038936;28;20075;-79
2021/05/13 08:13:16;;;;;;;1.50;0.93;;;;;;;;;;4989727;28;20037;-78
2021/05/13 08:15:42;;;;;;;1.67;0.90;;;;;;;;;;5004744;28;20072;-79
2021/05/13 08:18:07;;;;;;;1.55;0.80;;;;;;;;;;4986376;28;20080;-79
2021/05/13 08:20:33;;;;;;;2.03;1.00;;;;;;;;;;4990253;28;20029;-79
2021/05/13 08:22:58;;;;;;;1.57;0.83;;;;;;;;;;4990076;28;20056;-79
2021/05/13 08:25:23;;;;;;;2.30;0.93;;;;;;;;;;4985241;28;20021;-82
2021/05/13 08:27:49;;;;;;;1.93;0.83;;;;;;;;;;4993065;28;20065;-81
2021/05/13 08:30:15;;;;;;;1.83;0.97;;;;;;;;;;4993533;28;20040;-82
2021/05/13 08:32:40;;;;;;;1.17;0.70;;;;;;;;;;5010892;28;20396;-81
2021/05/13 08:35:06;;;;;;;2.47;1.10;;;;;;;;;;4966358;28;20117;-82
2021/05/13 08:37:31;;;;;;;1.33;0.80;;;;;;;;;;4981383;28;20075;-82
2021/05/13 08:39:57;;;;;;;2.30;1.00;;;;;;;;;;4966342;28;20084;-80
2021/05/13 08:42:22;;;;;;;2.67;0.90;;;;;;;;;;4986206;28;20497;-79
2021/05/13 08:44:47;;;;;;;1.87;0.77;;;;;;;;;;4983138;28;20026;-80
2021/05/13 08:47:13;;;;;;;1.37;0.80;;;;;;;;;;4983449;28;20536;-81
2021/05/13 08:49:39;;;;;;;1.43;0.97;;;;;;;;;;4999853;28;20130;-82
2021/05/13 08:52:11;;;;;;;1.42;0.77;;;;;;;;;;5000649;28;20033;-81
2021/05/13 08:54:48;;;;;;;1.33;0.80;;;;;;;;;;4998738;28;20109;-79
2021/05/13 08:57:14;;;;;;;1.17;0.70;;;;;;;;;;4984602;28;20025;-81
2021/05/13 08:59:41;;;;;;;1.43;0.80;;;;;;;;;;4965995;28;20065;-83
2021/05/13 09:02:06;;;;;;;1.55;0.88;;;;;;;;;;4995463;28;20116;-81
2021/05/13 09:04:39;;;;;;;2.20;1.03;;;;;;;;;;5001300;28;20032;-81
2021/05/13 09:07:29;;;;;;;1.13;0.90;;;;;;;;;;4983666;28;20029;-82
2021/05/13 09:10:08;;;;;;;1.80;0.90;;;;;;;;;;5017446;28;20088;-81
2021/05/13 09:12:37;;;;;;;1.33;0.80;;;;;;;;;;5010889;28;20093;-81
2021/05/13 09:15:07;;;;;;;2.65;1.00;;;;;;;;;;4998203;28;20113;-81
2021/05/13 09:17:33;;;;;;;1.45;0.75;;;;;;;;;;4998059;28;20026;-82
2021/05/13 09:20:00;;;;;;;1.27;0.80;;;;;;;;;;4965032;28;20033;-80
2021/05/13 09:22:26;;;;;;;1.65;0.75;;;;;;;;;;4965647;28;20030;-79
2021/05/13 09:24:58;;;;;;;1.92;0.90;;;;;;;;;;4990811;28;20030;-79
2021/05/13 09:27:41;;;;;;;2.08;0.88;;;;;;;;;;5015196;28;20484;-81
2021/05/13 09:30:16;;;;;;;1.85;0.80;;;;;;;;;;4981390;28;20022;-81
2021/05/13 09:32:43;;;;;;;1.30;0.80;;;;;;;;;;4982353;28;20034;-81
2021/05/13 09:35:14;;;;;;;1.17;0.80;;;;;;;;;;5005578;28;20489;-79
2021/05/13 09:37:46;;;;;;;1.65;0.90;;;;;;;;;;4981059;28;20038;-79
2021/05/13 09:40:12;;;;;;;1.50;0.90;;;;;;;;;;5005126;28;20033;-80
2021/05/13 09:42:37;;;;;;;1.08;0.80;;;;;;;;;;5000101;28;20107;-80
2021/05/13 09:45:04;;;;;;;1.47;0.90;;;;;;;;;;4991327;28;20033;-79
2021/05/13 09:47:30;;;;;;;1.95;0.80;;;;;;;;;;4999508;28;20124;-79
2021/05/13 09:50:08;;;;;;;1.20;0.70;;;;;;;;;;4985133;28;20462;-78
2021/05/13 09:52:41;;;;;;;1.77;0.93;;;;;;;;;;5015019;28;20029;-79
2021/05/13 09:55:14;;;;;;;1.02;0.65;;;;;;;;;;5006656;28;20113;-79
2021/05/13 09:57:40;;;;;;;1.52;0.85;;;;;;;;;;4996955;28;20104;-78
2021/05/13 10:00:07;;;;;;;1.60;0.88;;;;;;;;;;4981811;28;20038;-78
2021/05/13 10:02:32;;;;;;;1.55;0.80;;;;;;;;;;4981420;28;20044;-78
2021/05/13 10:04:58;;;;;;;1.20;0.80;;;;;;;;;;4990074;28;20069;-78
2021/05/13 10:07:24;;;;;;;1.48;0.70;;;;;;;;;;4985910;28;20489;-80
2021/05/13 10:09:49;;;;;;;1.83;0.63;;;;;;;;;;5020952;28;20080;-80
2021/05/13 10:12:14;;;;;;;2.00;0.90;;;;;;;;;;5017082;28;20089;-79
2021/05/13 10:14:40;;;;;;;1.83;0.90;;;;;;;;;;5015840;28;20102;-80
2021/05/13 10:17:05;;;;;;;1.60;0.80;;;;;;;;;;4999222;28;20045;-80
2021/05/13 10:19:34;;;;;;;2.00;1.00;;;;;;;;;;5007885;28;20773;-78
2021/05/13 10:22:01;;;;;;;1.85;0.75;;;;;;;;;;4994022;28;20120;-80
2021/05/13 10:24:27;;;;;;;1.52;0.70;;;;;;;;;;5000243;28;20018;-79
2021/05/13 10:26:52;;;;;;;1.60;0.70;;;;;;;;;;5027775;28;20183;-80
2021/05/13 10:29:20;;;;;;;2.20;0.83;;;;;;;;;;4996982;28;20581;-79
2021/05/13 10:32:01;;;;;;;0.90;0.68;;;;;;;;;;5018778;28;20439;-79
2021/05/13 10:34:43;;;;;;;1.40;0.90;;;;;;;;;;5000848;28;20030;-78
2021/05/13 10:37:30;;;;;;;1.15;0.77;;;;;;;;;;5018151;28;20073;-80
2021/05/13 10:42:41;;;;;;;1.75;0.90;;;;;;;;;;4997210;28;20503;-79
2021/05/13 10:45:25;;;;;;;1.38;0.70;;;;;;;;;;4980300;28;20029;-80
2021/05/13 10:48:12;;;;;;;2.03;0.80;;;;;;;;;;5013755;28;20029;-80
2021/05/13 10:50:41;;;;;;;1.73;0.90;;;;;;;;;;5028099;28;20060;-80
2021/05/13 10:53:43;;;;;;;1.52;0.70;;;;;;;;;;5032708;28;20033;-81
2021/05/13 10:56:22;;;;;;;1.65;0.85;;;;;;;;;;5033617;28;20061;-81
2021/05/13 10:59:01;;;;;;;1.30;0.80;;;;;;;;;;5033538;28;20032;-82
2021/05/13 11:01:41;;;;;;;1.58;0.82;;;;;;;;;;4997065;28;20034;-81
2021/05/13 11:04:25;;;;;;;1.15;0.60;;;;;;;;;;4995880;28;20036;-81
2021/05/13 11:06:51;;;;;;;1.65;0.90;;;;;;;;;;5026270;28;20029;-81
2021/05/13 11:09:39;;;;;;;2.40;0.83;;;;;;;;;;5014805;28;20566;-81
2021/05/13 11:12:21;;;;;;;1.17;0.70;;;;;;;;;;4997513;28;20375;-81
2021/05/13 11:14:57;;;;;;;1.48;0.80;;;;;;;;;;4998610;28;20030;-81
2021/05/13 11:18:03;;;;;;;0.90;0.70;;;;;;;;;;5012650;28;20026;-80
2021/05/13 11:20:46;;;;;;;1.90;0.80;;;;;;;;;;4970602;28;20026;-80
2021/05/13 11:23:25;;;;;;;1.50;0.80;;;;;;;;;;5011497;28;20420;-81
2021/05/13 11:25:59;;;;;;;1.63;0.70;;;;;;;;;;4987735;28;20038;-80
2021/05/13 11:28:42;;;;;;;1.35;0.80;;;;;;;;;;4978929;28;20048;-81
2021/05/13 11:31:07;;;;;;;1.35;0.70;;;;;;;;;;4993506;28;20029;-81
2021/05/13 11:33:45;;;;;;;1.20;0.70;;;;;;;;;;5032996;28;20021;-81
2021/05/13 11:36:11;;;;;;;;;;;;;;;;;;4997969;28;20119;-81
2021/05/13 11:38:37;;;;;;;1.75;0.80;;;;;;;;;;4994599;28;19964;-81
2021/05/13 11:41:02;;;;;;;1.48;0.85;;;;;;;;;;5009944;28;20032;-81
2021/05/13 11:43:34;;;;;;;3.20;0.70;;;;;;;;;;4983587;28;20045;-82
2021/05/13 11:46:04;;;;;;;2.28;1.00;;;;;;;;;;4992024;28;20504;-81
2021/05/13 11:48:36;;;;;;;1.30;0.80;;;;;;;;;;4991779;28;20511;-81
2021/05/13 11:51:09;;;;;;;1.80;0.80;;;;;;;;;;5014510;28;20120;-81
2021/05/13 11:53:36;;;;;;;1.65;0.80;;;;;;;;;;4999993;28;20396;-81
2021/05/13 11:56:01;;;;;;;1.17;0.75;;;;;;;;;;4981292;28;20060;-80
2021/05/13 11:58:42;;;;;;;1.40;0.77;;;;;;;;;;4962380;28;20443;-81
2021/05/13 12:01:27;;;;;;;0.85;0.70;;;;;;;;;;4963678;28;20480;-81
2021/05/13 12:03:55;;;;;;;1.83;0.80;;;;;;;;;;4978070;28;20507;-79
2021/05/13 12:06:21;;;;;;;1.40;0.88;;;;;;;;;;5021103;28;20033;-79
2021/05/13 12:08:46;;;;;;;1.52;0.80;;;;;;;;;;5010417;28;20128;-80
2021/05/13 12:11:18;;;;;;;1.30;0.90;;;;;;;;;;4962463;28;20477;-79
2021/05/13 12:13:45;;;;;;;1.40;0.70;;;;;;;;;;4995230;28;20081;-78
2021/05/13 12:16:11;;;;;;;1.50;0.80;;;;;;;;;;4990102;28;20057;-78
2021/05/13 12:18:36;;;;;;;3.40;1.03;;;;;;;;;;4984363;28;20066;-78
2021/05/13 12:21:01;;;;;;;1.73;0.80;;;;;;;;;;4997725;28;20358;-78
2021/05/13 12:23:27;;;;;;;1.80;0.90;;;;;;;;;;4998104;28;20113;-78
2021/05/13 12:25:52;;;;;;;2.87;0.67;;;;;;;;;;4987437;28;20124;-80
2021/05/13 12:28:17;;;;;;;1.67;0.93;;;;;;;;;;4978781;28;20054;-78
2021/05/13 12:30:51;;;;;;;1.43;0.70;;;;;;;;;;4976594;28;20078;-78
2021/05/13 12:33:23;;;;;;;2.15;0.88;;;;;;;;;;4999133;28;20276;-79
2021/05/13 12:35:49;;;;;;;1.30;0.70;;;;;;;;;;5006810;28;20033;-79
2021/05/13 12:38:16;;;;;;;1.40;0.80;;;;;;;;;;4979407;28;20103;-77
2021/05/13 12:40:41;;;;;;;;;;;;;;;;;;4964409;28;20072;-79
2021/05/13 12:43:19;;;;;;;2.10;0.93;;;;;;;;;;4979847;28;20273;-78
2021/05/13 12:45:49;;;;;;;3.45;0.73;;;;;;;;;;4979280;28;20424;-80
2021/05/13 12:48:28;;;;;;;1.35;0.70;;;;;;;;;;4980711;28;20029;-81
2021/05/13 12:50:57;;;;;;;1.60;0.90;;;;;;;;;;4990947;28;20044;-80
2021/05/13 12:53:23;;;;;;;1.42;0.70;;;;;;;;;;4997132;28;20080;-79
2021/05/13 12:55:49;;;;;;;1.80;0.80;;;;;;;;;;5017552;28;20484;-80
2021/05/13 12:58:16;;;;;;;1.10;0.70;;;;;;;;;;4986048;28;20083;-81
2021/05/13 13:00:42;;;;;;;1.33;0.70;;;;;;;;;;5001067;28;20017;-79
2021/05/13 13:03:14;;;;;;;1.13;0.73;;;;;;;;;;5000722;28;20033;-80
2021/05/13 13:05:39;;;;;;;1.58;0.70;;;;;;;;;;5003297;28;20121;-80
2021/05/13 13:08:04;;;;;;;1.53;0.97;;;;;;;;;;5017484;28;20037;-82
2021/05/13 13:10:32;;;;;;;1.20;0.70;;;;;;;;;;4986248;28;20068;-82
2021/05/13 13:13:16;;;;;;;1.67;0.80;;;;;;;;;;4985571;28;20404;-81
2021/05/13 13:15:50;;;;;;;1.13;0.70;;;;;;;;;;4985915;28;20040;-82
2021/05/13 13:18:16;;;;;;;1.38;0.80;;;;;;;;;;5002147;28;20515;-80
2021/05/13 13:20:42;;;;;;;2.80;0.90;;;;;;;;;;4981969;28;20026;-80
2021/05/13 13:23:17;;;;;;;1.47;0.77;;;;;;;;;;4981403;28;20030;-79
2021/05/13 13:25:42;;;;;;;1.35;0.70;;;;;;;;;;4997199;28;20037;-83
2021/05/13 13:28:08;;;;;;;1.60;0.80;;;;;;;;;;4980925;28;20037;-81
2021/05/13 13:30:33;;;;;;;1.30;0.70;;;;;;;;;;5000204;28;20033;-81
2021/05/13 13:33:00;;;;;;;1.10;0.80;;;;;;;;;;5002035;28;20144;-80
2021/05/13 13:35:27;;;;;;;;;;;;;;;;;;4970489;28;20488;-81
2021/05/13 13:37:52;;;;;;;1.97;0.90;;;;;;;;;;5028681;28;19917;-81
2021/05/13 13:40:17;;;;;;;0.90;0.67;;;;;;;;;;5002242;28;20120;-81
2021/05/13 13:42:43;;;;;;;1.63;0.90;;;;;;;;;;4998286;28;20046;-82
2021/05/13 13:45:09;;;;;;;1.53;0.90;;;;;;;;;;4983688;28;20393;-82
2021/05/13 13:47:34;;;;;;;1.67;0.88;;;;;;;;;;4981280;28;20033;-80
2021/05/13 13:49:59;;;;;;;1.17;0.80;;;;;;;;;;5006578;28;20037;-80
2021/05/13 13:52:25;;;;;;;2.03;0.90;;;;;;;;;;4999444;28;20033;-81
2021/05/13 13:54:50;;;;;;;1.33;0.80;;;;;;;;;;5000323;28;20116;-81
2021/05/13 13:57:15;;;;;;;1.40;0.70;;;;;;;;;;4994073;28;20108;-79
2021/05/13 13:59:41;;;;;;;1.77;0.90;;;;;;;;;;4980472;28;20064;-81
2021/05/13 14:02:06;;;;;;;1.87;1.00;;;;;;;;;;4992775;28;20537;-79
2021/05/13 14:04:32;;;;;;;1.30;0.70;;;;;;;;;;5016132;28;20056;-80
2021/05/13 14:06:57;;;;;;;2.20;0.77;;;;;;;;;;5035352;28;20154;-81
2021/05/13 14:09:22;;;;;;;1.47;0.70;;;;;;;;;;5036572;28;20033;-84
2021/05/13 14:11:49;;;;;;;1.37;0.93;;;;;;;;;;4999870;28;20058;-84
2021/05/13 14:14:14;;;;;;;;;;;;;;;;;;4980966;28;20428;-81
2021/05/13 14:16:41;;;;;;;1.50;0.90;;;;;;;;;;5015427;28;19916;-80
2021/05/13 14:19:06;;;;;;;1.27;0.70;;;;;;;;;;5017031;28;20029;-81
2021/05/13 14:21:31;;;;;;;1.90;0.90;;;;;;;;;;4999708;28;20040;-80
2021/05/13 14:24:00;;;;;;;2.33;0.90;;;;;;;;;;5000761;28;20017;-80
2021/05/13 14:26:25;;;;;;;2.15;0.90;;;;;;;;;;5015481;28;20040;-81
2021/05/13 14:28:50;;;;;;;2.77;1.00;;;;;;;;;;5017342;28;20061;-78
2021/05/13 14:31:16;;;;;;;1.50;0.80;;;;;;;;;;4989980;28;20125;-79
2021/05/13 14:33:41;;;;;;;2.03;1.03;;;;;;;;;;4981505;28;20117;-79
2021/05/13 14:36:06;;;;;;;1.50;0.90;;;;;;;;;;4994527;28;20838;-79
2021/05/13 14:38:32;;;;;;;2.17;1.10;;;;;;;;;;5017356;28;20463;-80
2021/05/13 14:40:57;;;;;;;2.27;1.00;;;;;;;;;;4993038;28;20117;-80
2021/05/13 14:43:22;;;;;;;1.60;0.90;;;;;;;;;;4965093;28;20030;-80
2021/05/13 14:45:48;;;;;;;1.10;0.80;;;;;;;;;;4992336;28;20109;-80
2021/05/13 14:48:17;;;;;;;1.00;0.80;;;;;;;;;;5034606;28;20029;-80
2021/05/13 14:50:42;;;;;;;1.88;1.00;;;;;;;;;;4979701;28;20477;-80
2021/05/13 14:53:08;;;;;;;1.90;0.90;;;;;;;;;;4980739;28;20036;-80
2021/05/13 14:55:33;;;;;;;2.47;1.17;;;;;;;;;;5005902;28;20477;-79